createdAt,value
2023-05-12T00:01:00.213Z,73.24
2023-05-12T00:06:06.169Z,73.82
2023-05-12T00:11:09.184Z,73.23
2023-05-12T00:16:13.943Z,73.02
2023-05-12T00:21:16.950Z,73.08
2023-05-12T00:26:19.927Z,73.62
2023-05-12T00:31:23.324Z,73.37
2023-05-12T00:36:27.337Z,72.85
2023-05-12T00:41:30.272Z,73.17
2023-05-12T00:46:33.539Z,72.33
2023-05-12T00:51:37.509Z,72.62
2023-05-12T00:56:41.355Z,72.32
2023-05-12T01:01:45.815Z,72.44
2023-05-12T01:06:52.158Z,71.36
2023-05-12T01:11:55.098Z,71.90
2023-05-12T01:17:00.700Z,71.10
2023-05-12T01:22:06.188Z,71.30
2023-05-12T01:27:09.801Z,70.70
2023-05-12T01:32:13.357Z,72.04
2023-05-12T01:37:16.908Z,72.30
2023-05-12T01:42:20.431Z,71.89
2023-05-12T01:47:24.369Z,71.84
2023-05-12T01:52:34.597Z,71.37
2023-05-12T01:57:38.157Z,71.91
2023-05-12T02:02:43.092Z,71.87
2023-05-12T02:07:48.722Z,71.22
2023-05-12T02:12:51.960Z,71.68
2023-05-12T02:17:55.684Z,71.25
2023-05-12T02:23:01.337Z,72.47
2023-05-12T02:28:11.068Z,71.51
2023-05-12T02:33:16.560Z,71.40
2023-05-12T02:38:19.671Z,72.01
2023-05-12T02:43:22.807Z,72.44
2023-05-12T02:48:26.133Z,72.26
2023-05-12T02:53:29.588Z,71.54
2023-05-12T02:58:32.652Z,71.71
2023-05-12T03:03:35.785Z,71.29
2023-05-12T03:08:38.899Z,71.40
2023-05-12T03:13:41.896Z,71.26
2023-05-12T03:18:44.892Z,71.17
2023-05-12T03:23:48.044Z,70.49
2023-05-12T03:28:51.060Z,70.82
2023-05-12T03:33:54.064Z,70.34
2023-05-12T03:38:57.513Z,69.73
2023-05-12T03:44:00.616Z,69.62
2023-05-12T03:49:03.835Z,68.86
2023-05-12T03:54:07.388Z,67.97
2023-05-12T03:59:12.321Z,67.44
2023-05-12T04:04:16.196Z,67.83
2023-05-12T04:09:19.234Z,67.46
2023-05-12T04:14:31.770Z,66.56
2023-05-12T04:19:42.546Z,66.14
2023-05-12T04:24:45.574Z,65.75
2023-05-12T04:29:48.812Z,65.42
2023-05-12T04:34:52.048Z,65.93
2023-05-12T04:39:55.185Z,65.90
2023-05-12T04:44:58.629Z,65.30
2023-05-12T04:50:01.800Z,64.45
2023-05-12T04:55:08.275Z,64.32
2023-05-12T05:00:12.143Z,63.50
2023-05-12T05:05:15.969Z,62.48
2023-05-12T05:10:19.163Z,61.71
2023-05-12T05:15:26.427Z,61.37
2023-05-12T05:20:29.711Z,61.25
2023-05-12T05:25:33.408Z,60.76
2023-05-12T05:30:36.756Z,56.54
2023-05-12T05:35:42.780Z,55.48
2023-05-12T05:40:53.836Z,55.98
2023-05-12T05:45:59.343Z,53.06
2023-05-12T05:51:02.759Z,52.79
2023-05-12T05:56:06.221Z,51.42
2023-05-12T06:01:09.360Z,52.12
2023-05-12T06:06:13.548Z,52.25
2023-05-12T06:11:17.913Z,51.90
2023-05-12T06:16:21.155Z,51.60
2023-05-12T06:21:24.477Z,51.80
2023-05-12T06:26:28.238Z,52.64
2023-05-12T06:31:32.469Z,53.53
2023-05-12T06:36:35.501Z,53.21
2023-05-12T06:41:38.506Z,53.24
2023-05-12T06:46:41.562Z,53.12
2023-05-12T06:51:44.645Z,53.46
2023-05-12T06:56:47.784Z,52.38
2023-05-12T07:01:50.839Z,50.46
2023-05-12T07:06:54.098Z,48.41
2023-05-12T07:11:57.046Z,47.45
2023-05-12T07:17:00.104Z,45.36
2023-05-12T07:22:03.172Z,44.54
2023-05-12T07:27:06.590Z,43.10
2023-05-12T07:32:09.661Z,43.47
2023-05-12T07:37:12.678Z,43.76
2023-05-12T07:42:15.818Z,42.88
2023-05-12T07:47:18.836Z,44.95
2023-05-12T07:52:22.103Z,43.90
2023-05-12T07:57:25.464Z,42.00
2023-05-12T08:02:28.670Z,43.67
2023-05-12T08:07:35.188Z,43.47
2023-05-12T08:12:38.344Z,43.93
2023-05-12T08:17:41.423Z,43.27
2023-05-12T08:22:44.974Z,44.31
2023-05-12T08:27:47.974Z,44.07
2023-05-12T08:32:51.053Z,44.69
2023-05-12T08:37:54.523Z,44.16
2023-05-12T08:43:06.330Z,43.00
2023-05-12T08:48:11.136Z,42.69
2023-05-12T08:53:16.751Z,41.28
2023-05-12T08:58:25.294Z,41.49
2023-05-12T09:03:37.168Z,41.71
2023-05-12T09:08:41.589Z,43.43
2023-05-12T09:14:00.662Z,42.51
2023-05-12T09:19:06.669Z,43.17
2023-05-12T09:24:10.303Z,44.19
2023-05-12T09:29:20.817Z,43.95
2023-05-12T09:34:38.905Z,43.58
2023-05-12T09:39:42.340Z,44.25
2023-05-12T09:44:47.284Z,45.85
2023-05-12T09:49:52.657Z,45.73
2023-05-12T09:54:55.710Z,44.05
2023-05-12T09:59:59.039Z,43.45
2023-05-12T10:05:07.153Z,44.18
2023-05-12T10:10:14.815Z,44.85
2023-05-12T10:15:18.901Z,44.55
2023-05-12T10:20:22.139Z,44.25
2023-05-12T10:25:25.362Z,43.98
2023-05-12T10:30:28.624Z,43.41
2023-05-12T10:35:36.723Z,44.01
2023-05-12T10:41:01.483Z,44.56
2023-05-12T10:46:09.320Z,44.20
2023-05-12T10:51:12.358Z,45.08
2023-05-12T10:56:23.865Z,45.13
2023-05-12T11:01:27.606Z,45.54
2023-05-12T11:06:31.390Z,45.10
2023-05-12T11:11:36.382Z,45.26
2023-05-12T11:16:46.001Z,44.48
2023-05-12T11:21:49.130Z,44.83
2023-05-12T11:26:52.535Z,45.62
2023-05-12T11:31:55.963Z,45.71
2023-05-12T11:36:58.926Z,45.26
2023-05-12T11:42:12.960Z,44.85
2023-05-12T11:47:18.107Z,44.84
2023-05-12T11:52:23.346Z,44.89
2023-05-12T11:57:27.939Z,43.71
2023-05-12T12:02:31.813Z,43.39
2023-05-12T12:07:36.822Z,43.56
2023-05-12T12:12:42.602Z,44.19
2023-05-12T12:17:45.736Z,44.46
2023-05-12T12:22:49.973Z,44.79
2023-05-12T12:27:53.544Z,45.29
2023-05-12T12:32:56.783Z,45.60
2023-05-12T12:37:59.890Z,45.76
2023-05-12T12:43:02.948Z,46.82
2023-05-12T12:48:07.059Z,47.51
2023-05-12T12:53:10.205Z,47.99
2023-05-12T12:58:15.926Z,48.87
2023-05-12T13:03:20.287Z,48.46
2023-05-12T13:08:24.727Z,49.60
2023-05-12T13:13:27.748Z,50.14
2023-05-12T13:18:30.867Z,50.38
2023-05-12T13:23:34.027Z,51.26
2023-05-12T13:28:37.558Z,51.10
2023-05-12T13:33:40.683Z,49.23
2023-05-12T13:38:43.683Z,48.09
2023-05-12T13:43:49.906Z,48.17
2023-05-12T13:48:53.140Z,47.67
2023-05-12T13:53:56.382Z,48.75
2023-05-12T13:58:59.363Z,49.43
2023-05-12T14:04:02.426Z,49.57
2023-05-12T14:09:08.517Z,49.40
2023-05-12T14:14:14.245Z,50.04
2023-05-12T14:19:17.368Z,50.84
2023-05-12T14:24:20.522Z,50.35
2023-05-12T14:29:23.607Z,51.25
2023-05-12T14:34:26.721Z,50.77
2023-05-12T14:39:29.695Z,50.87
2023-05-12T14:44:32.640Z,50.85
2023-05-12T14:49:35.681Z,49.91
2023-05-12T14:54:38.746Z,50.06
2023-05-12T14:59:41.721Z,49.63
2023-05-12T15:04:44.694Z,49.92
2023-05-12T15:09:47.643Z,50.34
2023-05-12T15:14:51.072Z,49.88
2023-05-12T15:19:54.559Z,50.28
2023-05-12T15:25:00.695Z,49.90
2023-05-12T15:30:04.079Z,50.29
2023-05-12T15:35:09.634Z,49.94
2023-05-12T15:40:13.931Z,50.36
2023-05-12T15:45:16.899Z,50.33
2023-05-12T15:50:23.198Z,50.68
2023-05-12T15:55:26.663Z,50.69
2023-05-12T16:00:29.737Z,51.12
2023-05-12T16:05:34.417Z,51.77
2023-05-12T16:10:37.386Z,51.79
2023-05-12T16:15:40.458Z,52.23
2023-05-12T16:20:44.852Z,52.67
2023-05-12T16:25:47.874Z,53.97
2023-05-12T16:30:50.889Z,54.26
2023-05-12T16:35:54.002Z,54.03
2023-05-12T16:40:57.016Z,54.63
2023-05-12T16:46:01.704Z,55.06
2023-05-12T16:51:07.027Z,55.80
2023-05-12T16:56:10.549Z,55.85
2023-05-12T17:01:13.801Z,56.27
2023-05-12T17:06:16.768Z,56.66
2023-05-12T17:11:19.801Z,56.42
2023-05-12T17:16:23.229Z,57.13
2023-05-12T17:21:26.787Z,57.66
2023-05-12T17:26:29.900Z,57.45
2023-05-12T17:31:32.999Z,58.13
2023-05-12T17:36:36.104Z,58.52
2023-05-12T17:41:39.120Z,58.54
2023-05-12T17:46:42.170Z,58.62
2023-05-12T17:51:45.286Z,59.29
2023-05-12T17:56:48.323Z,59.84
2023-05-12T18:01:52.222Z,60.58
2023-05-12T18:06:55.462Z,60.88
2023-05-12T18:11:58.404Z,61.27
2023-05-12T18:17:01.478Z,61.55
2023-05-12T18:22:04.623Z,61.47
2023-05-12T18:27:07.753Z,62.07
2023-05-12T18:32:11.125Z,61.97
2023-05-12T18:37:15.822Z,61.98
2023-05-12T18:42:18.825Z,63.02
2023-05-12T18:47:21.916Z,63.29
2023-05-12T18:52:24.910Z,63.83
2023-05-12T18:57:28.037Z,64.90
2023-05-12T19:02:31.007Z,64.62
2023-05-12T19:07:33.983Z,65.19
2023-05-12T19:12:37.068Z,65.86
2023-05-12T19:17:40.109Z,66.08
2023-05-12T19:22:44.267Z,66.85
2023-05-12T19:27:47.244Z,67.59
2023-05-12T19:32:50.375Z,68.15
2023-05-12T19:37:53.365Z,67.79
2023-05-12T19:42:56.877Z,68.59
2023-05-12T19:47:59.952Z,69.00
2023-05-12T19:53:03.004Z,69.51
2023-05-12T19:58:06.136Z,69.30
2023-05-12T20:03:09.302Z,69.86
2023-05-12T20:08:12.808Z,70.04
2023-05-12T20:13:15.905Z,69.72
2023-05-12T20:18:19.152Z,68.76
2023-05-12T20:23:22.164Z,69.28
2023-05-12T20:28:25.360Z,70.02
2023-05-12T20:33:28.338Z,70.28
2023-05-12T20:38:31.293Z,70.94
2023-05-12T20:43:34.395Z,70.63
2023-05-12T20:48:37.460Z,70.84
2023-05-12T20:53:40.538Z,70.71
2023-05-12T20:58:43.626Z,71.21
2023-05-12T21:03:46.660Z,72.08
2023-05-12T21:08:49.819Z,71.93
2023-05-12T21:13:52.894Z,71.57
2023-05-12T21:18:56.345Z,72.31
2023-05-12T21:23:59.354Z,71.79
2023-05-12T21:29:03.719Z,72.38
2023-05-12T21:34:07.477Z,72.55
2023-05-12T21:39:10.463Z,72.56
2023-05-12T21:44:13.461Z,71.78
2023-05-12T21:49:16.488Z,71.51
2023-05-12T21:54:19.428Z,71.33
2023-05-12T21:59:22.409Z,72.12
2023-05-12T22:04:25.389Z,71.76
2023-05-12T22:09:30.410Z,71.68
2023-05-12T22:14:34.100Z,72.27
2023-05-12T22:19:37.280Z,71.98
2023-05-12T22:24:40.332Z,72.44
2023-05-12T22:29:43.279Z,72.58
2023-05-12T22:34:46.251Z,72.11
2023-05-12T22:39:49.237Z,73.17
2023-05-12T22:44:52.188Z,72.63
2023-05-12T22:49:55.215Z,72.02
2023-05-12T22:54:58.154Z,73.04
2023-05-12T23:00:01.120Z,71.47
2023-05-12T23:05:04.496Z,71.69
2023-05-12T23:10:08.026Z,71.11
2023-05-12T23:15:11.374Z,70.76
2023-05-12T23:20:14.366Z,70.27
2023-05-12T23:25:19.180Z,70.18
2023-05-12T23:30:22.331Z,69.69
2023-05-12T23:35:26.497Z,70.82
2023-05-12T23:40:29.479Z,69.98
2023-05-12T23:45:33.369Z,70.38
2023-05-12T23:50:36.381Z,70.25
2023-05-12T23:55:39.369Z,70.30
